createdAt,value
2023-04-13T00:00:45.428Z,55.96
2023-04-13T00:03:13.214Z,56.15
2023-04-13T00:05:41.379Z,56.36
2023-04-13T00:08:09.075Z,56.19
2023-04-13T00:10:36.671Z,56.21
2023-04-13T00:13:05.466Z,56.14
2023-04-13T00:15:37.115Z,56.09
2023-04-13T00:18:06.966Z,56.15
2023-04-13T00:20:34.905Z,56.15
2023-04-13T00:23:02.360Z,56.02
2023-04-13T00:25:30.615Z,56.17
2023-04-13T00:27:58.015Z,56.15
2023-04-13T00:30:30.078Z,55.96
2023-04-13T00:32:57.432Z,55.93
2023-04-13T00:35:25.279Z,56.04
2023-04-13T00:37:53.719Z,55.86
2023-04-13T00:40:21.049Z,55.97
2023-04-13T00:42:50.226Z,55.93
2023-04-13T00:45:18.299Z,55.76
2023-04-13T00:47:47.759Z,55.96
2023-04-13T00:50:19.010Z,55.86
2023-04-13T00:52:48.325Z,55.89
2023-04-13T00:55:20.805Z,55.64
2023-04-13T00:57:50.262Z,55.87
2023-04-13T01:00:18.679Z,55.78
2023-04-13T01:02:46.150Z,55.80
2023-04-13T01:05:16.327Z,55.74
2023-04-13T01:08:15.265Z,55.60
2023-04-13T01:11:03.576Z,55.49
2023-04-13T01:13:48.725Z,55.68
2023-04-13T01:16:20.612Z,55.53
2023-04-13T01:18:52.650Z,55.55
2023-04-13T01:21:25.947Z,55.49
2023-04-13T01:23:53.166Z,55.41
2023-04-13T01:26:22.578Z,55.45
2023-04-13T01:28:51.397Z,55.47
2023-04-13T01:31:21.200Z,55.61
2023-04-13T01:33:49.438Z,55.44
2023-04-13T01:36:17.928Z,55.48
2023-04-13T01:38:46.754Z,55.49
2023-04-13T01:41:16.961Z,55.57
2023-04-13T01:43:46.878Z,55.53
2023-04-13T01:46:21.546Z,55.81
2023-04-13T01:49:16.209Z,55.54
2023-04-13T01:52:22.909Z,55.50
2023-04-13T01:54:51.320Z,55.48
2023-04-13T01:57:19.284Z,55.43
2023-04-13T01:59:47.285Z,55.42
2023-04-13T02:02:18.859Z,55.44
2023-04-13T02:04:46.550Z,55.45
2023-04-13T02:07:13.963Z,55.41
2023-04-13T02:09:47.002Z,55.42
2023-04-13T02:12:16.828Z,55.30
2023-04-13T02:14:44.139Z,55.42
2023-04-13T02:17:12.082Z,55.43
2023-04-13T02:19:42.004Z,55.26
2023-04-13T02:22:09.310Z,55.30
2023-04-13T02:24:36.884Z,55.34
2023-04-13T02:27:04.281Z,55.22
2023-04-13T02:29:32.615Z,55.40
2023-04-13T02:32:00.248Z,55.29
2023-04-13T02:34:28.015Z,55.31
2023-04-13T02:36:56.284Z,55.41
2023-04-13T02:39:23.718Z,55.53
2023-04-13T02:41:51.205Z,55.45
2023-04-13T02:44:22.191Z,55.49
2023-04-13T02:46:55.582Z,55.40
2023-04-13T02:49:24.442Z,55.27
2023-04-13T02:52:16.614Z,55.42
2023-04-13T02:54:55.167Z,55.32
2023-04-13T02:57:26.974Z,55.31
2023-04-13T02:59:56.637Z,55.36
2023-04-13T03:02:29.424Z,55.37
2023-04-13T03:04:57.263Z,55.15
2023-04-13T03:07:28.285Z,55.04
2023-04-13T03:09:55.552Z,55.25
2023-04-13T03:12:26.441Z,55.13
2023-04-13T03:14:54.197Z,55.40
2023-04-13T03:17:23.039Z,55.27
2023-04-13T03:19:51.931Z,55.05
2023-04-13T03:22:21.372Z,55.25
2023-04-13T03:24:49.584Z,55.39
2023-04-13T03:27:24.160Z,55.22
2023-04-13T03:29:54.487Z,55.16
2023-04-13T03:32:23.261Z,55.15
2023-04-13T03:34:57.404Z,55.35
2023-04-13T03:37:29.953Z,55.20
2023-04-13T03:40:01.550Z,55.36
2023-04-13T03:42:34.329Z,55.24
2023-04-13T03:45:01.790Z,55.33
2023-04-13T03:47:29.223Z,55.49
2023-04-13T03:49:56.508Z,55.30
2023-04-13T03:52:24.081Z,55.21
2023-04-13T03:54:57.273Z,55.37
2023-04-13T03:57:27.551Z,55.31
2023-04-13T03:59:56.680Z,54.96
2023-04-13T04:02:41.936Z,55.08
2023-04-13T04:05:14.678Z,55.21
2023-04-13T04:07:43.401Z,55.25
2023-04-13T04:10:11.266Z,55.09
2023-04-13T04:12:38.549Z,55.23
2023-04-13T04:15:08.757Z,55.28
2023-04-13T04:17:39.841Z,55.20
2023-04-13T04:20:08.183Z,55.18
2023-04-13T04:22:36.652Z,55.02
2023-04-13T04:25:04.942Z,55.30
2023-04-13T04:27:38.320Z,55.35
2023-04-13T04:30:10.976Z,55.31
2023-04-13T04:32:40.698Z,55.39
2023-04-13T04:35:14.336Z,55.34
2023-04-13T04:37:50.926Z,55.30
2023-04-13T04:40:19.612Z,55.25
2023-04-13T04:42:47.065Z,55.23
2023-04-13T04:45:27.434Z,55.27
2023-04-13T04:47:57.900Z,55.27
2023-04-13T04:50:26.958Z,55.02
2023-04-13T04:53:01.937Z,54.86
2023-04-13T04:55:29.298Z,54.65
2023-04-13T04:57:57.146Z,55.06
2023-04-13T05:00:26.438Z,54.94
2023-04-13T05:03:02.248Z,54.97
2023-04-13T05:05:32.832Z,54.95
2023-04-13T05:08:05.809Z,55.08
2023-04-13T05:10:43.345Z,55.06
2023-04-13T05:13:10.533Z,54.61
2023-04-13T05:15:38.455Z,54.88
2023-04-13T05:18:06.401Z,54.77
2023-04-13T05:20:34.782Z,54.60
2023-04-13T05:23:05.710Z,54.65
2023-04-13T05:25:39.678Z,54.78
2023-04-13T05:28:14.679Z,54.79
2023-04-13T05:30:42.425Z,54.80
2023-04-13T05:33:10.446Z,54.70
2023-04-13T05:35:39.293Z,54.71
2023-04-13T05:38:09.315Z,54.51
2023-04-13T05:40:36.889Z,54.78
2023-04-13T05:43:05.295Z,54.85
2023-04-13T05:45:37.032Z,54.78
2023-04-13T05:48:08.422Z,54.46
2023-04-13T05:50:35.865Z,54.45
2023-04-13T05:53:05.967Z,54.68
2023-04-13T05:55:45.180Z,54.56
2023-04-13T05:58:14.708Z,54.54
2023-04-13T06:00:43.219Z,54.75
2023-04-13T06:03:16.315Z,54.68
2023-04-13T06:05:44.100Z,54.37
2023-04-13T06:08:11.920Z,54.71
2023-04-13T06:10:39.904Z,54.58
2023-04-13T06:13:08.290Z,54.64
2023-04-13T06:15:36.727Z,54.29
2023-04-13T06:18:04.087Z,54.40
2023-04-13T06:20:34.456Z,54.56
2023-04-13T06:23:01.813Z,54.53
2023-04-13T06:25:30.925Z,54.48
2023-04-13T06:28:01.863Z,54.46
2023-04-13T06:30:31.071Z,54.38
2023-04-13T06:33:01.185Z,54.39
2023-04-13T06:35:30.523Z,54.60
2023-04-13T06:38:00.709Z,54.44
2023-04-13T06:40:34.772Z,54.52
2023-04-13T06:43:08.941Z,54.63
2023-04-13T06:45:48.295Z,54.49
2023-04-13T06:48:21.966Z,54.77
2023-04-13T06:50:55.934Z,54.64
2023-04-13T06:53:23.876Z,54.89
2023-04-13T06:55:52.344Z,55.02
2023-04-13T06:58:20.842Z,54.95
2023-04-13T07:00:49.884Z,54.71
2023-04-13T07:03:17.398Z,54.11
2023-04-13T07:05:45.424Z,54.10
2023-04-13T07:08:16.609Z,54.74
2023-04-13T07:10:46.513Z,54.43
2023-04-13T07:13:22.140Z,54.19
2023-04-13T07:15:49.664Z,54.33
2023-04-13T07:18:17.194Z,54.09
2023-04-13T07:20:44.617Z,54.35
2023-04-13T07:23:13.886Z,54.79
2023-04-13T07:25:41.473Z,54.47
2023-04-13T07:28:16.537Z,55.26
2023-04-13T07:30:47.435Z,54.25
2023-04-13T07:33:16.088Z,54.87
2023-04-13T07:35:43.785Z,54.64
2023-04-13T07:38:14.135Z,55.66
2023-04-13T07:40:41.484Z,54.05
2023-04-13T07:43:11.898Z,53.72
2023-04-13T07:45:41.503Z,53.76
2023-04-13T07:48:09.475Z,53.56
2023-04-13T07:50:52.819Z,53.31
2023-04-13T07:53:23.875Z,53.47
2023-04-13T07:55:52.756Z,53.75
2023-04-13T07:58:20.238Z,53.39
2023-04-13T08:00:47.860Z,53.41
2023-04-13T08:03:16.158Z,53.41
2023-04-13T08:05:47.512Z,53.72
2023-04-13T08:08:14.900Z,53.80
2023-04-13T08:10:42.570Z,53.82
2023-04-13T08:13:09.952Z,54.11
2023-04-13T08:15:38.811Z,53.93
2023-04-13T08:18:06.893Z,53.95
2023-04-13T08:20:35.426Z,54.23
2023-04-13T08:23:03.734Z,53.99
2023-04-13T08:25:31.369Z,53.95
2023-04-13T08:27:58.792Z,54.18
2023-04-13T08:30:26.337Z,54.01
2023-04-13T08:32:59.012Z,54.16
2023-04-13T08:35:28.935Z,53.85
2023-04-13T08:38:02.642Z,53.93
2023-04-13T08:40:33.974Z,54.00
2023-04-13T08:43:01.521Z,54.17
2023-04-13T08:45:34.406Z,54.18
2023-04-13T08:48:02.794Z,54.22
2023-04-13T08:50:33.407Z,54.17
2023-04-13T08:53:02.024Z,54.30
2023-04-13T08:55:29.946Z,54.20
2023-04-13T08:58:03.732Z,54.50
2023-04-13T09:00:31.862Z,54.62
2023-04-13T09:03:10.540Z,54.53
2023-04-13T09:05:44.486Z,54.59
2023-04-13T09:08:13.700Z,54.61
2023-04-13T09:10:44.277Z,54.44
2023-04-13T09:13:12.128Z,54.76
2023-04-13T09:15:41.114Z,54.90
2023-04-13T09:18:23.558Z,54.65
2023-04-13T09:21:00.567Z,54.90
2023-04-13T09:23:28.089Z,54.80
2023-04-13T09:26:08.985Z,54.76
2023-04-13T09:28:49.859Z,54.86
2023-04-13T09:31:17.419Z,54.77
2023-04-13T09:33:46.672Z,54.85
2023-04-13T09:36:15.746Z,55.08
2023-04-13T09:38:45.157Z,54.90
2023-04-13T09:41:12.630Z,54.94
2023-04-13T09:43:40.364Z,54.76
2023-04-13T09:46:14.273Z,54.83
2023-04-13T09:48:42.067Z,54.81
2023-04-13T09:51:09.829Z,54.73
2023-04-13T09:53:42.952Z,55.02
2023-04-13T09:56:10.218Z,54.86
2023-04-13T09:58:44.972Z,54.80
2023-04-13T10:01:15.219Z,54.97
2023-04-13T10:03:43.852Z,54.83
2023-04-13T10:06:11.177Z,54.90
2023-04-13T10:08:46.337Z,54.64
2023-04-13T10:11:14.977Z,55.04
2023-04-13T10:13:51.126Z,54.91
2023-04-13T10:16:47.424Z,54.83
2023-04-13T10:19:21.616Z,54.85
2023-04-13T10:21:51.843Z,54.78
2023-04-13T10:24:20.197Z,54.94
2023-04-13T10:26:47.681Z,55.02
2023-04-13T10:29:16.942Z,54.86
2023-04-13T10:31:49.085Z,54.96
2023-04-13T10:34:24.251Z,54.92
2023-04-13T10:36:55.167Z,54.85
2023-04-13T10:39:27.614Z,54.81
2023-04-13T10:42:09.065Z,54.62
2023-04-13T10:44:51.156Z,54.65
2023-04-13T10:47:21.105Z,54.78
2023-04-13T10:49:50.581Z,54.84
2023-04-13T10:52:18.071Z,54.74
2023-04-13T10:54:45.470Z,54.86
2023-04-13T10:57:13.133Z,54.70
2023-04-13T10:59:57.903Z,54.75
2023-04-13T11:02:31.502Z,54.70
2023-04-13T11:04:59.741Z,54.60
2023-04-13T11:07:27.129Z,54.62
2023-04-13T11:12:29.067Z,54.85
2023-04-13T11:14:56.372Z,54.97
2023-04-13T11:17:23.867Z,54.86
2023-04-13T11:19:53.293Z,54.98
2023-04-13T11:22:25.705Z,54.98
2023-04-13T11:24:53.413Z,55.56
2023-04-13T11:27:23.139Z,58.55
2023-04-13T11:30:00.625Z,59.57
2023-04-13T11:32:28.125Z,59.73
2023-04-13T11:35:09.255Z,60.66
2023-04-13T11:37:42.026Z,60.43
2023-04-13T11:40:12.630Z,60.67
2023-04-13T11:42:42.811Z,60.76
2023-04-13T11:45:11.357Z,60.77
2023-04-13T11:47:38.888Z,61.11
2023-04-13T11:50:07.257Z,61.86
2023-04-13T11:52:35.585Z,62.00
2023-04-13T11:55:19.057Z,62.50
2023-04-13T11:57:49.702Z,60.92
2023-04-13T12:00:20.049Z,60.97
2023-04-13T12:03:00.962Z,62.09
2023-04-13T12:05:32.451Z,61.48
2023-04-13T12:08:03.019Z,62.62
2023-04-13T12:10:41.144Z,62.97
2023-04-13T12:16:01.381Z,62.74
2023-04-13T12:18:43.285Z,61.30
2023-04-13T12:21:19.973Z,61.42
2023-04-13T12:23:55.697Z,62.03
2023-04-13T12:29:04.813Z,62.88
2023-04-13T12:31:39.456Z,60.15
2023-04-13T12:34:07.904Z,61.83
2023-04-13T12:36:36.777Z,62.81
2023-04-13T12:39:04.781Z,62.09
2023-04-13T12:41:33.126Z,62.10
2023-04-13T12:44:00.407Z,61.98
2023-04-13T12:46:27.906Z,62.63
2023-04-13T12:48:55.462Z,63.39
2023-04-13T12:51:22.833Z,63.33
2023-04-13T12:53:50.057Z,62.83
2023-04-13T12:56:17.633Z,63.70
2023-04-13T12:58:44.965Z,63.63
2023-04-13T13:01:14.006Z,63.69
2023-04-13T13:03:41.428Z,63.53
2023-04-13T13:06:08.819Z,63.89
2023-04-13T13:08:39.347Z,63.55
2023-04-13T13:11:08.432Z,63.65
2023-04-13T13:13:35.926Z,63.46
2023-04-13T13:16:03.683Z,63.79
2023-04-13T13:18:46.554Z,63.73
2023-04-13T13:21:17.891Z,64.30
2023-04-13T13:23:45.751Z,63.89
2023-04-13T13:28:43.584Z,58.11
2023-04-13T13:31:10.920Z,61.75
2023-04-13T13:33:38.240Z,62.14
2023-04-13T13:36:05.758Z,62.69
2023-04-13T13:38:34.457Z,63.14
2023-04-13T13:41:03.090Z,62.80
2023-04-13T13:43:30.831Z,62.64
2023-04-13T13:45:58.326Z,62.77
2023-04-13T13:48:26.423Z,62.72
2023-04-13T13:51:03.330Z,63.36
2023-04-13T13:53:33.054Z,63.07
2023-04-13T13:56:01.799Z,62.31
2023-04-13T13:58:29.093Z,62.75
2023-04-13T14:00:56.445Z,62.29
2023-04-13T14:03:23.961Z,63.09
2023-04-13T14:05:51.315Z,63.61
2023-04-13T14:08:18.737Z,62.92
2023-04-13T14:10:49.350Z,62.48
2023-04-13T14:13:17.061Z,62.93
2023-04-13T14:15:44.462Z,62.64
2023-04-13T14:18:12.213Z,62.70
2023-04-13T14:20:40.412Z,61.53
2023-04-13T14:23:09.275Z,62.51
2023-04-13T14:25:38.589Z,62.02
2023-04-13T14:28:06.781Z,61.88
2023-04-13T14:30:34.303Z,61.52
2023-04-13T14:33:02.145Z,61.06
2023-04-13T14:35:29.888Z,62.72
2023-04-13T14:37:57.229Z,63.12
2023-04-13T14:40:24.742Z,63.19
2023-04-13T14:42:52.952Z,63.44
2023-04-13T14:45:21.135Z,63.52
2023-04-13T14:47:48.868Z,63.31
2023-04-13T14:50:17.098Z,63.86
2023-04-13T14:52:45.800Z,63.81
2023-04-13T14:55:14.199Z,63.94
2023-04-13T14:57:41.891Z,63.94
2023-04-13T15:00:16.297Z,63.99
2023-04-13T15:02:44.032Z,63.80
2023-04-13T15:05:11.598Z,63.92
2023-04-13T15:07:38.904Z,63.68
2023-04-13T15:10:08.441Z,64.11
2023-04-13T15:12:35.722Z,64.30
2023-04-13T15:15:03.542Z,64.36
2023-04-13T15:17:31.215Z,64.27
2023-04-13T15:19:58.591Z,64.44
2023-04-13T15:22:26.321Z,63.75
2023-04-13T15:24:53.689Z,63.98
2023-04-13T15:27:21.119Z,60.11
2023-04-13T15:29:49.624Z,57.91
2023-04-13T15:32:19.640Z,58.57
2023-04-13T15:34:47.461Z,57.00
2023-04-13T15:37:14.667Z,58.65
2023-04-13T15:39:42.155Z,57.75
2023-04-13T15:42:09.388Z,53.48
2023-04-13T15:44:39.626Z,53.41
2023-04-13T15:47:07.520Z,58.18
2023-04-13T15:49:34.694Z,57.27
2023-04-13T15:52:01.886Z,57.46
2023-04-13T15:54:29.903Z,57.09
2023-04-13T15:56:57.516Z,54.30
2023-04-13T15:59:26.838Z,54.50
2023-04-13T16:01:54.392Z,55.75
2023-04-13T16:04:21.739Z,57.46
2023-04-13T16:07:04.936Z,54.96
2023-04-13T16:09:37.086Z,54.52
2023-04-13T16:12:07.749Z,53.88
2023-04-13T16:14:45.367Z,53.39
2023-04-13T16:17:15.077Z,53.84
2023-04-13T16:19:46.857Z,53.04
2023-04-13T16:22:14.426Z,52.60
2023-04-13T16:24:42.055Z,51.77
2023-04-13T16:27:10.198Z,51.75
2023-04-13T16:29:37.488Z,51.70
2023-04-13T16:32:04.926Z,50.95
2023-04-13T16:34:32.700Z,51.21
2023-04-13T16:37:00.532Z,50.35
2023-04-13T16:39:27.768Z,54.95
2023-04-13T16:41:55.028Z,50.74
2023-04-13T16:44:22.268Z,50.50
2023-04-13T16:46:49.646Z,50.58
2023-04-13T16:49:16.942Z,50.32
2023-04-13T16:51:44.228Z,50.03
2023-04-13T16:54:13.924Z,50.28
2023-04-13T16:56:41.281Z,49.91
2023-04-13T16:59:08.533Z,50.14
2023-04-13T17:01:38.621Z,50.03
2023-04-13T17:04:06.890Z,50.00
2023-04-13T17:06:38.387Z,50.04
2023-04-13T17:09:06.120Z,51.84
2023-04-13T17:11:33.919Z,55.62
2023-04-13T17:14:01.428Z,52.70
2023-04-13T17:16:29.630Z,51.95
2023-04-13T17:18:57.180Z,52.32
2023-04-13T17:21:24.657Z,52.19
2023-04-13T17:23:52.007Z,52.08
2023-04-13T17:26:19.308Z,52.73
2023-04-13T17:28:46.630Z,53.05
2023-04-13T17:31:14.576Z,54.04
2023-04-13T17:33:41.855Z,54.13
2023-04-13T17:36:09.352Z,54.06
2023-04-13T17:38:36.702Z,53.34
2023-04-13T17:41:04.113Z,53.57
2023-04-13T17:43:31.535Z,54.56
2023-04-13T17:45:59.136Z,55.22
2023-04-13T17:48:26.398Z,55.96
2023-04-13T17:50:53.569Z,57.02
2023-04-13T17:53:20.893Z,56.36
2023-04-13T17:55:48.144Z,57.18
2023-04-13T17:58:15.501Z,57.15
2023-04-13T18:00:42.821Z,56.17
2023-04-13T18:03:11.624Z,57.77
2023-04-13T18:05:44.388Z,57.22
2023-04-13T18:08:11.885Z,57.04
2023-04-13T18:10:39.116Z,57.12
2023-04-13T18:13:06.452Z,57.40
2023-04-13T18:15:33.732Z,57.95
2023-04-13T18:18:01.589Z,57.15
2023-04-13T18:20:30.209Z,57.74
2023-04-13T18:22:57.531Z,58.23
2023-04-13T18:25:24.975Z,58.54
2023-04-13T18:27:52.267Z,58.05
2023-04-13T18:30:19.796Z,57.39
2023-04-13T18:32:47.279Z,57.16
2023-04-13T18:35:14.664Z,57.51
2023-04-13T18:37:41.983Z,57.59
2023-04-13T18:40:10.212Z,58.48
2023-04-13T18:42:40.645Z,58.41
2023-04-13T18:45:08.630Z,57.84
2023-04-13T18:47:35.910Z,57.54
2023-04-13T18:50:03.526Z,56.87
2023-04-13T18:52:30.979Z,58.29
2023-04-13T18:54:58.792Z,57.22
2023-04-13T18:57:26.712Z,57.47
2023-04-13T18:59:54.440Z,56.72
2023-04-13T19:02:21.828Z,57.18
2023-04-13T19:04:49.312Z,56.86
2023-04-13T19:07:17.035Z,55.37
2023-04-13T19:09:44.403Z,55.36
2023-04-13T19:12:11.747Z,55.48
2023-04-13T19:14:38.968Z,54.54
2023-04-13T19:17:06.756Z,53.73
2023-04-13T19:19:33.901Z,53.61
2023-04-13T19:22:01.240Z,53.13
2023-04-13T19:24:28.517Z,53.35
2023-04-13T19:26:56.477Z,53.15
2023-04-13T19:29:26.926Z,52.55
2023-04-13T19:31:54.847Z,52.79
2023-04-13T19:34:22.592Z,52.81
2023-04-13T19:36:49.888Z,52.73
2023-04-13T19:39:19.225Z,52.60
2023-04-13T19:41:47.286Z,52.51
2023-04-13T19:44:16.843Z,52.59
2023-04-13T19:46:44.280Z,52.49
2023-04-13T19:49:11.961Z,54.04
2023-04-13T19:51:40.339Z,52.89
2023-04-13T19:54:07.563Z,53.00
2023-04-13T19:56:34.769Z,52.80
2023-04-13T19:59:06.719Z,52.70
2023-04-13T20:01:34.179Z,52.61
2023-04-13T20:04:04.177Z,53.23
2023-04-13T20:06:35.959Z,53.02
2023-04-13T20:09:14.293Z,52.82
2023-04-13T20:11:41.983Z,52.41
2023-04-13T20:14:11.568Z,52.27
2023-04-13T20:16:38.987Z,52.35
2023-04-13T20:19:06.878Z,52.32
2023-04-13T20:21:34.555Z,52.38
2023-04-13T20:24:03.232Z,52.31
2023-04-13T20:26:31.552Z,52.37
2023-04-13T20:29:00.363Z,52.91
2023-04-13T20:31:32.467Z,52.23
2023-04-13T20:34:00.068Z,52.45
2023-04-13T20:36:27.665Z,52.25
2023-04-13T20:38:59.564Z,52.09
2023-04-13T20:41:29.825Z,51.98
2023-04-13T20:43:58.773Z,52.08
2023-04-13T20:46:34.975Z,51.93
2023-04-13T20:49:05.165Z,51.98
2023-04-13T20:51:33.542Z,51.90
2023-04-13T20:54:02.746Z,51.92
2023-04-13T20:56:30.367Z,51.87
2023-04-13T20:58:58.345Z,51.82
2023-04-13T21:01:25.861Z,51.89
2023-04-13T21:03:53.518Z,51.81
2023-04-13T21:06:22.973Z,51.91
2023-04-13T21:08:50.254Z,51.87
2023-04-13T21:11:17.467Z,51.83
2023-04-13T21:13:44.716Z,51.82
2023-04-13T21:16:12.238Z,51.57
2023-04-13T21:18:41.559Z,51.56
2023-04-13T21:21:08.955Z,51.59
2023-04-13T21:23:37.416Z,51.66
2023-04-13T21:26:05.389Z,51.56
2023-04-13T21:28:32.722Z,51.40
2023-04-13T21:30:59.963Z,53.06
2023-04-13T21:33:27.348Z,52.58
2023-04-13T21:35:54.621Z,51.47
2023-04-13T21:38:22.024Z,51.23
2023-04-13T21:40:49.347Z,51.15
2023-04-13T21:43:17.050Z,51.89
2023-04-13T21:45:44.320Z,51.45
2023-04-13T21:48:11.627Z,52.50
2023-04-13T21:50:38.829Z,51.49
2023-04-13T21:53:06.165Z,51.49
2023-04-13T21:55:33.493Z,51.92
2023-04-13T21:58:00.798Z,52.13
2023-04-13T22:00:28.283Z,53.41
2023-04-13T22:02:55.637Z,52.67
2023-04-13T22:05:22.968Z,52.07
2023-04-13T22:07:50.345Z,51.54
2023-04-13T22:10:17.644Z,51.50
2023-04-13T22:12:44.928Z,51.42
2023-04-13T22:15:12.316Z,51.43
2023-04-13T22:17:39.634Z,51.43
2023-04-13T22:20:08.409Z,51.25
2023-04-13T22:22:36.122Z,51.37
2023-04-13T22:25:03.528Z,51.34
2023-04-13T22:27:30.906Z,51.42
2023-04-13T22:29:58.158Z,51.38
2023-04-13T22:32:28.566Z,51.15
2023-04-13T22:34:57.017Z,51.37
2023-04-13T22:37:24.267Z,51.33
2023-04-13T22:39:51.511Z,51.19
2023-04-13T22:42:18.694Z,51.26
2023-04-13T22:44:46.179Z,51.33
2023-04-13T22:47:13.516Z,51.23
2023-04-13T22:49:41.246Z,51.19
2023-04-13T22:52:08.639Z,51.76
2023-04-13T22:54:36.078Z,51.45
2023-04-13T22:57:05.299Z,52.83
2023-04-13T22:59:32.809Z,51.72
2023-04-13T23:02:01.688Z,52.48
2023-04-13T23:04:31.625Z,51.86
2023-04-13T23:06:59.089Z,51.82
2023-04-13T23:09:26.377Z,51.64
2023-04-13T23:11:53.646Z,51.75
2023-04-13T23:14:22.671Z,51.79
2023-04-13T23:16:50.010Z,51.65
2023-04-13T23:19:18.577Z,51.77
2023-04-13T23:21:46.437Z,51.70
2023-04-13T23:24:13.713Z,51.91
2023-04-13T23:26:41.003Z,51.79
2023-04-13T23:29:08.196Z,51.93
2023-04-13T23:31:35.722Z,51.76
2023-04-13T23:34:03.097Z,51.83
2023-04-13T23:36:31.017Z,51.90
2023-04-13T23:38:58.366Z,51.96
2023-04-13T23:41:25.841Z,51.97
2023-04-13T23:43:53.614Z,51.95
2023-04-13T23:46:22.559Z,51.94
2023-04-13T23:48:49.976Z,52.08
2023-04-13T23:51:17.231Z,52.25
2023-04-13T23:53:44.492Z,52.32
2023-04-13T23:56:11.878Z,51.96
2023-04-13T23:58:39.113Z,51.82
